Time;durP1;ratioP1;P1;durP2;ratioP2;P2;SDS_P1;SDS_P2;PMS_P1;PMS_P2;Temp;Humidity;BMP_temperature;BMP_pressure;BME280_temperature;BME280_humidity;BME280_pressure;Samples;Min_cycle;Max_cycle;Signal;HPM_P1;HPM_P2
2023/01/27 00:00:18;;;;;;;;;;;;;;;8.71;59.37;101205.78;4997431;28;6776;-73
2023/01/27 00:02:45;;;;;;;;;;;;;;;8.68;58.73;101204.69;4978128;28;7000;-73
2023/01/27 00:05:13;;;;;;;;;;;;;;;8.61;59.09;101204.25;4994001;28;7204;-73
2023/01/27 00:07:44;;;;;;;;;;;;;;;8.58;59.16;101213.38;5005159;28;6793;-73
2023/01/27 00:10:14;;;;;;;;;;;;;;;8.52;59.07;101212.97;4987133;28;7032;-73
2023/01/27 00:15:25;;;;;;;;;;;;;;;8.40;59.10;101215.50;4989677;28;6812;-73
2023/01/27 00:17:51;;;;;;;;;;;;;;;8.37;59.06;101228.94;4991308;28;6780;-72
2023/01/27 00:25:49;;;;;;;;;;;;;;;8.31;58.80;101228.53;5004024;28;6820;-72
2023/01/27 00:28:21;;;;;;;;;;;;;;;8.32;58.35;101220.09;4997115;28;6803;-72
2023/01/27 00:30:51;;;;;;;;;;;;;;;8.30;58.74;101214.88;4996183;28;7060;-72
2023/01/27 00:33:25;;;;;;;;;;;;;;;8.32;58.57;101225.19;4970929;28;6981;-72
2023/01/27 00:36:03;;;;;;;;;;;;;;;8.31;59.16;101220.88;4985290;28;6887;-73
2023/01/27 00:38:32;;;;;;;;;;;;;;;8.32;58.81;101225.19;4989696;28;6947;-72
2023/01/27 00:43:42;;;;;;;;;;;;;;;8.32;59.52;101220.97;4982049;28;6800;-72
2023/01/27 00:46:08;;;;;;;;;;;;;;;8.35;58.97;101225.41;4995816;28;6943;-72
2023/01/27 00:48:34;;;;;;;;;;;;;;;8.35;58.74;101225.41;4992177;28;7052;-72
2023/01/27 00:51:00;;;;;;;;;;;;;;;8.37;59.09;101225.53;5003347;28;7165;-72
2023/01/27 00:53:26;;;;;;;;;;;;;;;8.36;58.44;101219.50;4986616;28;6927;-72
2023/01/27 00:55:52;;;;;;;;;;;;;;;8.36;58.72;101231.41;4986429;28;7391;-72
2023/01/27 00:58:17;;;;;;;;;;;;;;;8.35;59.03;101225.41;4988484;28;6780;-72
2023/01/27 01:00:43;;;;;;;;;;;;;;;8.37;58.99;101228.94;5000749;28;6983;-72
2023/01/27 01:03:09;;;;;;;;;;;;;;;8.36;57.85;101224.63;4994151;28;6980;-72
2023/01/27 01:05:35;;;;;;;;;;;;;;;8.37;58.68;101225.53;4984217;28;6941;-73
2023/01/27 01:08:01;;;;;;;;;;;;;;;8.36;57.94;101229.72;4986963;28;6836;-72
2023/01/27 01:10:26;;;;;;;;;;;;;;;8.38;58.23;101234.97;4974492;28;6768;-72
2023/01/27 01:12:52;;;;;;;;;;;;;;;8.36;57.74;101234.84;4988202;28;6792;-72
2023/01/27 01:15:18;;;;;;;;;;;;;;;8.36;57.24;101239.94;4983654;28;8644;-72
2023/01/27 01:17:43;;;;;;;;;;;;;;;8.36;57.75;101231.41;5002940;28;7248;-72
2023/01/27 01:20:10;;;;;;;;;;;;;;;8.34;57.56;101236.41;5004662;28;6768;-72
2023/01/27 01:22:35;;;;;;;;;;;;;;;8.33;57.77;101243.16;4964414;28;6980;-72
2023/01/27 01:25:01;;;;;;;;;;;;;;;8.33;58.73;101247.41;5001833;28;8080;-72
2023/01/27 01:27:28;;;;;;;;;;;;;;;8.35;58.69;101243.28;5002519;28;6972;-72
2023/01/27 01:29:54;;;;;;;;;;;;;;;8.36;58.28;101245.06;5003398;28;6792;-72
2023/01/27 01:32:19;;;;;;;;;;;;;;;8.38;57.78;101245.19;4959278;28;6941;-72
2023/01/27 01:34:45;;;;;;;;;;;;;;;8.38;58.20;101251.16;5001225;28;6868;-73
2023/01/27 01:37:10;;;;;;;;;;;;;;;8.39;58.00;101254.63;4987923;28;6957;-73
2023/01/27 01:39:36;;;;;;;;;;;;;;;8.39;57.82;101252.94;5002273;28;6767;-72
2023/01/27 01:42:02;;;;;;;;;;;;;;;8.37;58.16;101248.50;5002135;28;6791;-72
2023/01/27 01:44:31;;;;;;;;;;;;;;;8.37;57.68;101259.59;4994861;28;7024;-72
2023/01/27 01:46:57;;;;;;;;;;;;;;;8.37;58.69;101254.50;4982356;28;6792;-72
2023/01/27 01:49:39;;;;;;;;;;;;;;;8.37;57.70;101251.94;4984234;28;6953;-72
2023/01/27 01:52:15;;;;;;;;;;;;;;;8.38;58.25;101252.84;4981417;28;6804;-72
2023/01/27 01:54:51;;;;;;;;;;;;;;;8.36;58.62;101252.72;5003925;28;6812;-72
2023/01/27 01:57:28;;;;;;;;;;;;;;;8.37;57.42;101253.63;4986054;28;7236;-73
2023/01/27 02:00:05;;;;;;;;;;;;;;;8.37;58.68;101246.81;4981957;28;6820;-72
2023/01/27 02:02:33;;;;;;;;;;;;;;;8.38;57.98;101248.59;4981376;28;6796;-72
2023/01/27 02:05:07;;;;;;;;;;;;;;;8.38;57.36;101245.19;4992861;28;6804;-72
2023/01/27 02:08:00;;;;;;;;;;;;;;;8.36;58.46;101242.50;4999630;28;6815;-72
2023/01/27 02:10:25;;;;;;;;;;;;;;;8.36;57.79;101251.84;4999766;28;7232;-72
2023/01/27 02:12:52;;;;;;;;;;;;;;;8.36;58.41;101252.72;4976853;28;6848;-72
2023/01/27 02:15:20;;;;;;;;;;;;;;;8.35;58.63;101258.63;4983257;28;6812;-72
2023/01/27 02:17:47;;;;;;;;;;;;;;;8.34;57.98;101262.81;5002729;28;7236;-72
2023/01/27 02:20:38;;;;;;;;;;;;;;;8.33;57.19;101248.28;4987506;28;7204;-72
2023/01/27 02:23:26;;;;;;;;;;;;;;;8.31;57.93;101241.31;4989374;28;8124;-72
2023/01/27 02:26:11;;;;;;;;;;;;;;;8.32;58.20;101248.19;5003940;28;6808;-72
2023/01/27 02:28:37;;;;;;;;;;;;;;;8.32;58.05;101254.16;4982059;28;8361;-72
2023/01/27 02:31:02;;;;;;;;;;;;;;;8.33;57.84;101255.94;4978840;28;7009;-72
2023/01/27 02:33:28;;;;;;;;;;;;;;;8.33;57.45;101245.72;4980240;28;6775;-73
2023/01/27 02:36:11;;;;;;;;;;;;;;;8.32;57.94;101256.72;4963087;28;6930;-72
2023/01/27 02:38:51;;;;;;;;;;;;;;;8.31;57.95;101254.94;4990247;28;6812;-72
2023/01/27 02:42:01;;;;;;;;;;;;;;;8.31;58.49;101262.59;4990896;28;6812;-72
2023/01/27 02:44:27;;;;;;;;;;;;;;;8.30;58.38;101262.50;4970082;28;6836;-72
2023/01/27 02:46:52;;;;;;;;;;;;;;;8.30;57.33;101260.84;4987781;28;7192;-72
2023/01/27 02:49:18;;;;;;;;;;;;;;;8.31;57.43;101259.19;4986262;28;6768;-73
2023/01/27 02:51:44;;;;;;;;;;;;;;;8.30;57.23;101263.41;5004741;28;6772;-72
2023/01/27 02:54:09;;;;;;;;;;;;;;;8.31;57.46;101259.19;4982911;28;6771;-73
2023/01/27 02:56:35;;;;;;;;;;;;;;;8.30;57.08;101262.50;4997261;28;7825;-73
2023/01/27 02:59:00;;;;;;;;;;;;;;;8.31;58.13;101260.06;4984117;28;6954;-72
2023/01/27 03:01:26;;;;;;;;;;;;;;;8.32;57.47;101263.50;4987560;28;6776;-73
2023/01/27 03:03:52;;;;;;;;;;;;;;;8.32;57.17;101260.97;4992882;28;6956;-72
2023/01/27 03:06:19;;;;;;;;;;;;;;;8.31;57.52;101259.19;4990623;28;6971;-72
2023/01/27 03:08:44;;;;;;;;;;;;;;;8.30;56.57;101263.41;4992315;28;6800;-72
2023/01/27 03:11:11;;;;;;;;;;;;;;;8.30;57.80;101254.84;5008647;28;7242;-72
2023/01/27 03:13:37;;;;;;;;;;;;;;;8.31;57.50;101261.75;4976917;28;6804;-72
2023/01/27 03:18:52;;;;;;;;;;;;;;;8.27;57.71;101252.06;5003665;28;6804;-72
2023/01/27 03:21:19;;;;;;;;;;;;;;;8.27;56.67;101262.28;4980465;28;6800;-72
2023/01/27 03:23:47;;;;;;;;;;;;;;;8.28;57.87;101258.94;4988174;28;6812;-73
2023/01/27 03:26:14;;;;;;;;;;;;;;;8.28;56.92;101256.41;5006100;28;6844;-72
2023/01/27 03:28:39;;;;;;;;;;;;;;;8.28;57.94;101258.94;4983605;28;6988;-72
2023/01/27 03:31:18;;;;;;;;;;;;;;;8.27;57.04;101258.06;4985574;28;6992;-72
2023/01/27 03:33:46;;;;;;;;;;;;;;;8.29;57.96;101268.38;4991220;28;6803;-73
2023/01/27 03:47:10;;;;;;;;;;;;;;;8.20;57.32;101272.06;5001422;28;6804;-72
2023/01/27 03:49:36;;;;;;;;;;;;;;;8.24;57.63;101277.41;4956793;28;8002;-72
2023/01/27 03:52:01;;;;;;;;;;;;;;;8.27;56.68;101281.06;4984891;28;6978;-72
2023/01/27 03:54:27;;;;;;;;;;;;;;;8.28;57.31;101277.72;4987940;28;6844;-72
2023/01/27 03:56:53;;;;;;;;;;;;;;;8.29;57.58;101283.72;5003993;28;6804;-73
2023/01/27 03:59:18;;;;;;;;;;;;;;;8.29;56.92;101289.72;4979739;28;6966;-73
2023/01/27 04:01:44;;;;;;;;;;;;;;;8.29;57.21;101293.94;5000520;28;7314;-73
2023/01/27 04:06:57;;;;;;;;;;;;;;;8.25;57.63;101295.38;4984775;28;6808;-73
2023/01/27 04:09:26;;;;;;;;;;;;;;;8.24;56.82;101303.81;4975616;28;7974;-74
2023/01/27 04:11:59;;;;;;;;;;;;;;;8.23;57.33;101306.28;4978388;28;6852;-74
2023/01/27 04:14:40;;;;;;;;;;;;;;;8.21;57.21;101306.16;5001531;28;6824;-73
2023/01/27 04:17:17;;;;;;;;;;;;;;;8.16;56.01;101316.03;4986261;28;6816;-73
2023/01/27 04:19:43;;;;;;;;;;;;;;;8.11;56.72;101304.63;4985901;28;9035;-73
2023/01/27 04:22:17;;;;;;;;;;;;;;;8.06;56.55;101317.06;4978679;28;7009;-73
2023/01/27 04:24:43;;;;;;;;;;;;;;;8.02;55.73;101314.16;4987163;28;7068;-73
2023/01/27 04:27:12;;;;;;;;;;;;;;;7.97;56.13;101311.28;4982694;28;6990;-73
2023/01/27 04:29:40;;;;;;;;;;;;;;;7.91;56.22;101319.34;4982270;28;7388;-73
2023/01/27 04:32:09;;;;;;;;;;;;;;;7.87;55.73;101325.00;4968844;28;6868;-73
2023/01/27 04:34:36;;;;;;;;;;;;;;;7.82;57.04;101328.00;4975224;28;6970;-73
2023/01/27 04:37:04;;;;;;;;;;;;;;;7.79;56.26;101333.75;4984591;28;6772;-74
2023/01/27 04:39:30;;;;;;;;;;;;;;;7.76;56.49;101339.50;4992190;28;7176;-73
2023/01/27 04:41:56;;;;;;;;;;;;;;;7.70;56.00;101340.72;4991909;28;6775;-73
2023/01/27 04:44:23;;;;;;;;;;;;;;;7.68;57.00;101340.63;4988366;28;7173;-74
2023/01/27 04:46:49;;;;;;;;;;;;;;;7.68;55.85;101339.72;4971735;28;7253;-73
2023/01/27 04:49:15;;;;;;;;;;;;;;;7.68;56.87;101339.72;4969862;28;6962;-73
2023/01/27 04:51:41;;;;;;;;;;;;;;;7.68;55.98;101349.94;4978507;28;7007;-73
2023/01/27 04:54:07;;;;;;;;;;;;;;;7.67;56.71;101338.81;5000861;28;6913;-73
2023/01/27 04:56:40;;;;;;;;;;;;;;;7.67;55.78;101348.16;4990329;28;6784;-73
2023/01/27 04:59:10;;;;;;;;;;;;;;;7.64;56.29;101339.50;4987733;28;6934;-73
2023/01/27 05:01:35;;;;;;;;;;;;;;;7.67;56.00;101348.16;4988042;28;7229;-73
2023/01/27 05:04:01;;;;;;;;;;;;;;;7.66;56.88;101341.28;4979685;28;7280;-73
2023/01/27 05:06:27;;;;;;;;;;;;;;;7.65;57.04;101353.16;4973155;28;7050;-74
2023/01/27 05:08:53;;;;;;;;;;;;;;;7.66;56.63;101351.50;4983760;28;6776;-73
2023/01/27 05:11:20;;;;;;;;;;;;;;;7.67;56.68;101348.16;4983501;28;8317;-73
2023/01/27 05:13:46;;;;;;;;;;;;;;;7.68;55.78;101350.84;4986139;28;6844;-73
2023/01/27 05:16:22;;;;;;;;;;;;;;;7.68;55.66;101348.28;4987599;28;7113;-73
2023/01/27 05:18:51;;;;;;;;;;;;;;;7.70;56.71;101351.84;5001472;28;6788;-74
2023/01/27 05:21:29;;;;;;;;;;;;;;;7.70;55.86;101348.38;4980825;28;6784;-73
2023/01/27 05:23:56;;;;;;;;;;;;;;;7.69;56.28;101346.59;4989732;28;7160;-73
2023/01/27 05:26:26;;;;;;;;;;;;;;;7.69;56.90;101352.63;5000513;28;7166;-73
2023/01/27 05:28:53;;;;;;;;;;;;;;;7.69;56.06;101355.16;4996078;28;8328;-72
2023/01/27 05:31:24;;;;;;;;;;;;;;;7.69;56.37;101357.72;4983093;28;6816;-73
2023/01/27 05:33:53;;;;;;;;;;;;;;;7.70;56.66;101358.59;4992803;28;7335;-73
2023/01/27 05:36:21;;;;;;;;;;;;;;;7.70;56.42;101356.94;4980715;28;7438;-73
2023/01/27 05:38:47;;;;;;;;;;;;;;;7.71;56.97;101357.81;4991630;28;6800;-73
2023/01/27 05:41:15;;;;;;;;;;;;;;;7.71;56.06;101355.25;4976108;28;6851;-73
2023/01/27 05:43:44;;;;;;;;;;;;;;;7.70;57.04;101348.38;4982322;28;6811;-73
2023/01/27 05:46:14;;;;;;;;;;;;;;;7.70;56.37;101349.28;4981767;28;6942;-73
2023/01/27 05:48:45;;;;;;;;;;;;;;;7.68;56.40;101350.84;4979417;28;6804;-73
2023/01/27 05:51:13;;;;;;;;;;;;;;;7.66;55.78;101359.16;4992716;28;7809;-73
2023/01/27 05:53:38;;;;;;;;;;;;;;;7.61;56.38;101357.13;4983125;28;6973;-73
2023/01/27 05:56:07;;;;;;;;;;;;;;;7.55;55.52;101354.13;4996655;28;6836;-73
2023/01/27 05:58:33;;;;;;;;;;;;;;;7.53;55.99;101357.34;4975790;28;7894;-73
2023/01/27 06:01:20;;;;;;;;;;;;;;;7.51;56.42;101364.84;5001597;28;7236;-73
2023/01/27 06:03:47;;;;;;;;;;;;;;;7.48;56.63;101362.09;4996122;28;7326;-73
2023/01/27 06:06:17;;;;;;;;;;;;;;;7.47;56.81;101362.84;4988951;28;7286;-73
2023/01/27 06:08:43;;;;;;;;;;;;;;;7.47;56.60;101365.41;4984440;28;6858;-73
2023/01/27 06:11:09;;;;;;;;;;;;;;;7.47;57.18;101373.06;4986745;28;7169;-73
2023/01/27 06:13:37;;;;;;;;;;;;;;;7.47;56.37;101368.84;5001070;28;7269;-73
2023/01/27 06:16:04;;;;;;;;;;;;;;;7.48;57.11;101370.63;4982175;28;6987;-73
2023/01/27 06:18:30;;;;;;;;;;;;;;;7.48;57.30;101383.41;4997704;28;6790;-73
2023/01/27 06:21:00;;;;;;;;;;;;;;;7.48;56.55;101382.50;4973570;28;6779;-74
2023/01/27 06:23:27;;;;;;;;;;;;;;;7.48;56.35;101378.28;4992977;28;7284;-73
2023/01/27 06:25:54;;;;;;;;;;;;;;;7.49;56.70;101382.63;4982476;28;6792;-73
2023/01/27 06:28:21;;;;;;;;;;;;;;;7.49;56.97;101380.06;4993479;28;6799;-73
2023/01/27 06:30:47;;;;;;;;;;;;;;;7.51;57.09;101382.72;4991850;28;7078;-73
2023/01/27 06:33:12;;;;;;;;;;;;;;;7.52;57.54;101381.06;4990838;28;6776;-73
2023/01/27 06:35:39;;;;;;;;;;;;;;;7.53;56.74;101385.41;4982458;28;7379;-73
2023/01/27 06:38:12;;;;;;;;;;;;;;;7.53;57.09;101383.72;4992024;28;7014;-73
2023/01/27 06:40:37;;;;;;;;;;;;;;;7.53;57.05;101381.16;4981386;28;6796;-73
2023/01/27 06:43:03;;;;;;;;;;;;;;;7.53;57.71;101380.28;4983995;28;7211;-73
2023/01/27 06:45:29;;;;;;;;;;;;;;;7.54;56.97;101393.19;4983408;28;6991;-73
2023/01/27 06:47:58;;;;;;;;;;;;;;;7.53;57.26;101385.41;4982044;28;6772;-73
2023/01/27 06:50:27;;;;;;;;;;;;;;;7.52;57.14;101393.81;4997967;28;6800;-74
2023/01/27 06:52:59;;;;;;;;;;;;;;;7.51;57.00;101400.56;4984599;28;6796;-73
2023/01/27 06:55:27;;;;;;;;;;;;;;;7.50;57.66;101398.78;4997836;28;6796;-73
2023/01/27 06:57:52;;;;;;;;;;;;;;;7.49;56.83;101392.81;4995517;28;7305;-73
2023/01/27 07:00:20;;;;;;;;;;;;;;;7.49;57.00;101394.47;4999190;28;7002;-73
2023/01/27 07:02:45;;;;;;;;;;;;;;;7.49;57.26;101400.47;4974403;28;9945;-73
2023/01/27 07:05:12;;;;;;;;;;;;;;;7.49;57.97;101410.69;4961383;28;9715;-73
2023/01/27 07:07:38;;;;;;;;;;;;;;;7.49;57.91;101404.66;4998031;28;6779;-72
2023/01/27 07:10:06;;;;;;;;;;;;;;;7.49;57.88;101402.13;4991936;28;6951;-72
2023/01/27 07:12:36;;;;;;;;;;;;;;;7.49;57.30;101399.56;5004405;28;6784;-73
2023/01/27 07:15:07;;;;;;;;;;;;;;;7.50;57.98;101406.44;4986882;28;6893;-73
2023/01/27 07:17:34;;;;;;;;;;;;;;;7.49;57.96;101409.78;4980439;28;7880;-72
2023/01/27 07:19:59;;;;;;;;;;;;;;;7.50;58.05;101411.56;4994041;28;6848;-73
2023/01/27 07:22:25;;;;;;;;;;;;;;;7.50;57.17;101409.00;4979773;28;7562;-73
2023/01/27 07:24:53;;;;;;;;;;;;;;;7.50;57.46;101417.56;4997740;28;6863;-73
2023/01/27 07:27:18;;;;;;;;;;;;;;;7.53;58.21;101421.09;4992407;28;7055;-73
2023/01/27 07:29:44;;;;;;;;;;;;;;;7.55;57.99;101419.56;4974173;28;7015;-73
2023/01/27 07:32:10;;;;;;;;;;;;;;;7.57;57.83;101418.00;5005540;28;6969;-73
2023/01/27 07:34:35;;;;;;;;;;;;;;;7.58;58.02;101415.59;4999214;28;6963;-73
2023/01/27 07:37:01;;;;;;;;;;;;;;;7.61;57.39;101423.47;5001990;28;7226;-72
2023/01/27 07:39:27;;;;;;;;;;;;;;;7.62;58.52;101419.25;5004285;28;6961;-72
2023/01/27 07:41:52;;;;;;;;;;;;;;;7.64;57.30;101423.72;4986382;28;7211;-72
2023/01/27 07:44:20;;;;;;;;;;;;;;;7.66;57.71;101425.50;4996168;28;7028;-73
2023/01/27 07:46:46;;;;;;;;;;;;;;;7.68;57.55;101431.59;5001550;28;6856;-72
2023/01/27 07:49:11;;;;;;;;;;;;;;;7.68;58.52;101418.84;5005681;28;7077;-73
2023/01/27 07:51:37;;;;;;;;;;;;;;;7.70;58.24;101424.94;4979465;28;6856;-73
2023/01/27 07:54:04;;;;;;;;;;;;;;;7.70;58.27;101422.38;4981097;28;7003;-73
2023/01/27 07:56:31;;;;;;;;;;;;;;;7.71;57.55;101426.72;4986455;28;6974;-73
2023/01/27 07:58:57;;;;;;;;;;;;;;;7.72;58.23;101425.94;5005906;28;7019;-73
2023/01/27 08:01:23;;;;;;;;;;;;;;;7.72;57.71;101419.19;4971133;28;6784;-72
2023/01/27 08:03:48;;;;;;;;;;;;;;;7.74;58.29;101414.22;4966337;28;6796;-73
2023/01/27 08:06:14;;;;;;;;;;;;;;;7.75;58.04;101418.53;4982466;28;7059;-73
2023/01/27 08:08:40;;;;;;;;;;;;;;;7.76;57.65;101420.31;4983485;28;6792;-73
2023/01/27 08:11:11;;;;;;;;;;;;;;;7.76;57.59;101430.53;4975297;28;6787;-72
2023/01/27 08:13:37;;;;;;;;;;;;;;;7.75;58.25;101428.75;4996883;28;6971;-72
2023/01/27 08:16:07;;;;;;;;;;;;;;;7.74;58.59;101429.53;4966593;28;6780;-72
2023/01/27 08:18:34;;;;;;;;;;;;;;;7.75;57.83;101431.28;4986271;28;6954;-73
2023/01/27 08:21:03;;;;;;;;;;;;;;;7.77;57.83;101432.28;4968754;28;7174;-73
2023/01/27 08:23:31;;;;;;;;;;;;;;;7.79;58.10;101438.41;4959970;28;7150;-73
2023/01/27 08:26:01;;;;;;;;;;;;;;;7.79;57.29;101440.94;5000603;28;7911;-73
2023/01/27 08:28:29;;;;;;;;;;;;;;;7.82;57.93;101438.63;4952951;28;6981;-72
2023/01/27 08:31:14;;;;;;;;;;;;;;;7.83;57.30;101436.97;4976525;28;7077;-73
2023/01/27 08:33:42;;;;;;;;;;;;;;;7.81;57.85;101431.75;4986279;28;6788;-72
2023/01/27 08:36:16;;;;;;;;;;;;;;;7.82;57.98;101430.97;4968598;28;6963;-73
2023/01/27 08:38:44;;;;;;;;;;;;;;;7.86;58.26;101434.66;4959190;28;7273;-73
2023/01/27 08:41:13;;;;;;;;;;;;;;;7.87;58.02;101434.78;4977155;28;6784;-73
2023/01/27 08:43:40;;;;;;;;;;;;;;;7.89;58.00;101438.31;4958427;28;6935;-73
2023/01/27 08:46:07;;;;;;;;;;;;;;;7.93;57.17;101439.44;4975575;28;6792;-73
2023/01/27 08:48:35;;;;;;;;;;;;;;;7.95;57.92;101434.47;4968031;28;6792;-73
2023/01/27 08:51:02;;;;;;;;;;;;;;;8.00;57.87;101440.78;4968255;28;6981;-73
2023/01/27 08:53:28;;;;;;;;;;;;;;;8.02;57.21;101439.28;4969718;28;7099;-73
2023/01/27 08:56:03;;;;;;;;;;;;;;;8.06;57.67;101436.16;5001137;28;6824;-72
2023/01/27 08:58:29;;;;;;;;;;;;;;;8.11;57.76;101439.97;4983616;28;6792;-73
2023/01/27 09:00:54;;;;;;;;;;;;;;;8.17;58.00;101445.50;4962844;28;6968;-73
2023/01/27 09:03:20;;;;;;;;;;;;;;;8.24;58.05;101438.31;4958923;28;7048;-72
2023/01/27 09:05:46;;;;;;;;;;;;;;;8.27;57.46;101441.06;4967829;28;6832;-73
2023/01/27 09:08:12;;;;;;;;;;;;;;;8.29;57.89;101440.41;4977615;28;6784;-72
2023/01/27 09:10:39;;;;;;;;;;;;;;;8.32;57.24;101450.84;4960406;28;6864;-73
2023/01/27 09:13:07;;;;;;;;;;;;;;;8.34;57.72;101454.41;4976581;28;6954;-72
2023/01/27 09:15:35;;;;;;;;;;;;;;;8.36;57.64;101449.41;4950524;28;7259;-72
2023/01/27 09:18:01;;;;;;;;;;;;;;;8.38;58.08;101458.06;4963786;28;6796;-73
2023/01/27 09:20:27;;;;;;;;;;;;;;;8.39;56.82;101458.97;4984457;28;7105;-72
2023/01/27 09:22:55;;;;;;;;;;;;;;;8.41;57.12;101460.88;4981504;28;6776;-73
2023/01/27 09:25:21;;;;;;;;;;;;;;;8.41;58.07;101460.88;4970171;28;6820;-73
2023/01/27 09:27:47;;;;;;;;;;;;;;;8.41;56.83;101458.31;4974339;28;6968;-73
2023/01/27 09:30:14;;;;;;;;;;;;;;;8.39;57.68;101453.88;4985242;28;7408;-73
2023/01/27 09:32:41;;;;;;;;;;;;;;;8.39;56.70;101464.97;5001865;28;7186;-73
2023/01/27 09:35:08;;;;;;;;;;;;;;;8.37;57.28;101461.41;4983475;28;7206;-73
2023/01/27 09:37:49;;;;;;;;;;;;;;;8.38;57.21;101462.31;4986099;28;6851;-73
2023/01/27 09:40:47;;;;;;;;;;;;;;;8.38;57.21;101469.97;4968853;28;7163;-73
2023/01/27 09:43:56;;;;;;;;;;;;;;;8.39;57.68;101474.31;4984774;28;6815;-75
2023/01/27 09:47:00;;;;;;;;;;;;;;;8.38;56.71;101470.84;4987553;28;6811;-73
2023/01/27 09:49:50;;;;;;;;;;;;;;;8.39;56.85;101477.75;4965830;28;7161;-73
2023/01/27 09:52:53;;;;;;;;;;;;;;;8.40;56.73;101477.00;4981912;28;6824;-73
2023/01/27 09:55:57;;;;;;;;;;;;;;;8.39;57.54;101477.75;4966977;28;7051;-73
2023/01/27 09:58:53;;;;;;;;;;;;;;;8.43;57.03;101478.84;4968839;28;6879;-73
2023/01/27 10:01:53;;;;;;;;;;;;;;;8.46;57.69;101486.78;4978873;28;6819;-73
2023/01/27 10:04:59;;;;;;;;;;;;;;;8.47;57.08;101488.53;4975347;28;6828;-73
2023/01/27 10:07:34;;;;;;;;;;;;;;;8.48;57.77;101478.41;4965150;28;6812;-73
2023/01/27 10:10:02;;;;;;;;;;;;;;;8.53;56.95;101477.91;4993688;28;7491;-73
2023/01/27 10:13:11;;;;;;;;;;;;;;;8.57;56.74;101482.47;4980375;28;6884;-73
2023/01/27 10:16:20;;;;;;;;;;;;;;;8.58;56.92;101474.03;4993130;28;7031;-72
2023/01/27 10:19:00;;;;;;;;;;;;;;;8.59;57.85;101480.91;4978245;28;6828;-73
2023/01/27 10:22:15;;;;;;;;;;;;;;;8.64;58.19;101488.91;4978580;28;7225;-73
2023/01/27 10:24:58;;;;;;;;;;;;;;;8.66;57.84;101483.13;4965998;28;6997;-73
2023/01/27 10:27:26;;;;;;;;;;;;;;;8.69;57.67;101485.94;4979959;28;7106;-73
2023/01/27 10:30:07;;;;;;;;;;;;;;;8.73;57.51;101481.91;4972535;28;7171;-73
2023/01/27 10:33:09;;;;;;;;;;;;;;;8.76;56.58;101477.03;4976176;28;6819;-73
2023/01/27 10:35:57;;;;;;;;;;;;;;;8.81;57.27;101480.81;4964231;28;6827;-74
2023/01/27 10:38:46;;;;;;;;;;;;;;;8.87;56.99;101477.81;4974477;28;7110;-74
2023/01/27 10:42:29;;;;;;;;;;;;;;;8.92;56.47;101471.38;4979180;28;6828;-73
2023/01/27 10:45:28;;;;;;;;;;;;;;;8.97;56.77;101471.69;4851925;29;7405;-73
2023/01/27 10:48:36;;;;;;;;;;;;;;;9.00;57.28;101475.38;4895377;29;6800;-73
2023/01/27 10:51:23;;;;;;;;;;;;;;;9.02;56.17;101468.69;4973697;28;7341;-74
2023/01/27 10:54:12;;;;;;;;;;;;;;;9.04;56.88;101468.81;4971510;28;6812;-73
2023/01/27 10:56:55;;;;;;;;;;;;;;;9.07;56.88;101471.56;4976372;28;6816;-73
2023/01/27 11:00:05;;;;;;;;;;;;;;;9.10;57.22;101466.66;4971984;28;7020;-73
2023/01/27 11:02:41;;;;;;;;;;;;;;;9.11;56.51;101472.69;4982796;28;6812;-73
2023/01/27 11:05:23;;;;;;;;;;;;;;;9.14;56.15;101470.34;4966428;28;6804;-73
2023/01/27 11:08:01;;;;;;;;;;;;;;;9.16;56.24;101466.22;4966889;28;7024;-73
2023/01/27 11:11:42;;;;;;;;;;;;;;;9.22;56.75;101475.97;4974779;28;7068;-73
2023/01/27 11:13:28;;;;;;;;;;;;;;;9.28;56.11;101464.53;4959899;28;7567;-73
2023/01/27 11:15:55;;;;;;;;;;;;;;;9.32;56.46;101463.09;4958535;28;7083;-73
2023/01/27 11:18:24;;;;;;;;;;;;;;;9.35;57.08;101463.28;4968780;28;7230;-73
2023/01/27 11:21:03;;;;;;;;;;;;;;;9.36;56.59;101464.16;4968880;28;6812;-73
2023/01/27 11:23:45;;;;;;;;;;;;;;;9.36;56.54;101464.16;4961942;28;8245;-74
2023/01/27 11:26:23;;;;;;;;;;;;;;;9.34;56.83;101461.53;4978335;28;7176;-73
2023/01/27 11:29:31;;;;;;;;;;;;;;;9.32;55.79;101457.97;4982723;28;7046;-73
2023/01/27 11:32:17;;;;;;;;;;;;;;;9.31;56.20;101457.06;4962488;28;7208;-73
2023/01/27 11:35:04;;;;;;;;;;;;;;;9.30;55.81;101455.28;4982422;28;6827;-73
2023/01/27 11:37:36;;;;;;;;;;;;;;;9.31;56.59;101462.19;4982245;28;6784;-73
2023/01/27 11:40:17;;;;;;;;;;;;;;;9.33;55.93;101448.59;4981643;28;7041;-73
2023/01/27 11:42:44;;;;;;;;;;;;;;;9.33;56.21;101453.72;4966038;28;6812;-73
2023/01/27 11:45:17;;;;;;;;;;;;;;;9.34;56.01;101456.41;4992556;28;7860;-73
2023/01/27 11:47:48;;;;;;;;;;;;;;;9.34;56.82;101452.94;4958900;28;6943;-73
2023/01/27 11:50:17;;;;;;;;;;;;;;;9.35;55.98;101453.06;4995706;28;6998;-73
2023/01/27 11:53:15;;;;;;;;;;;;;;;9.35;55.60;101457.28;4991391;28;6792;-73
2023/01/27 11:55:53;;;;;;;;;;;;;;;9.31;55.58;101439.16;4956450;28;7079;-73
2023/01/27 11:58:42;;;;;;;;;;;;;;;9.31;55.47;101445.94;4961993;28;7007;-73
2023/01/27 12:01:18;;;;;;;;;;;;;;;9.31;56.11;101449.41;4947288;28;7275;-73
2023/01/27 12:04:08;;;;;;;;;;;;;;;9.36;56.46;101449.72;4967903;28;7278;-73
2023/01/27 12:06:47;;;;;;;;;;;;;;;9.39;56.13;101455.03;4961104;28;7130;-73
2023/01/27 12:09:38;;;;;;;;;;;;;;;9.43;55.80;101446.81;4996038;28;8223;-73
2023/01/27 12:12:12;;;;;;;;;;;;;;;9.45;55.85;101450.34;4982343;28;6796;-73
2023/01/27 12:14:46;;;;;;;;;;;;;;;9.48;55.77;101444.56;4982409;28;7177;-73
2023/01/27 12:17:23;;;;;;;;;;;;;;;9.50;55.87;101443.00;4966382;28;6951;-73
2023/01/27 12:19:54;;;;;;;;;;;;;;;9.51;56.32;101444.78;4963104;28;6820;-73
2023/01/27 12:22:32;;;;;;;;;;;;;;;9.50;56.17;101437.88;4962687;28;6812;-73
2023/01/27 12:25:04;;;;;;;;;;;;;;;9.50;56.07;101440.44;4987170;28;7006;-73
2023/01/27 12:27:46;;;;;;;;;;;;;;;9.48;56.40;101439.44;4966329;28;7381;-73
2023/01/27 12:30:28;;;;;;;;;;;;;;;9.45;55.55;101437.56;4976591;28;7061;-73
2023/01/27 12:32:55;;;;;;;;;;;;;;;9.44;55.31;101429.75;4972185;28;8610;-73
2023/01/27 12:35:29;;;;;;;;;;;;;;;9.46;56.00;101435.88;4969002;28;7335;-72
2023/01/27 12:38:24;;;;;;;;;;;;;;;9.46;55.38;101430.75;4995678;28;6823;-73
2023/01/27 12:41:03;;;;;;;;;;;;;;;9.47;55.99;101417.22;4969112;28;7409;-73
2023/01/27 12:43:30;;;;;;;;;;;;;;;9.51;55.79;101413.16;4983404;28;7070;-73
2023/01/27 12:46:10;;;;;;;;;;;;;;;9.53;55.47;101417.59;4964207;28;6940;-73
2023/01/27 12:48:49;;;;;;;;;;;;;;;9.53;55.16;101412.50;4990085;28;7476;-73
2023/01/27 12:51:20;;;;;;;;;;;;;;;9.57;55.49;101414.50;4966264;28;6804;-74
2023/01/27 12:54:10;;;;;;;;;;;;;;;9.56;55.55;101412.72;4974906;28;6980;-73
2023/01/27 12:56:37;;;;;;;;;;;;;;;9.56;54.87;101412.72;4971924;28;7206;-73
2023/01/27 12:59:03;;;;;;;;;;;;;;;9.56;55.01;101412.72;4960084;28;7293;-73
2023/01/27 13:01:36;;;;;;;;;;;;;;;9.57;55.31;101416.16;4983706;28;6844;-73
2023/01/27 13:04:11;;;;;;;;;;;;;;;9.57;55.16;101411.03;4984596;28;8729;-73
2023/01/27 13:06:46;;;;;;;;;;;;;;;9.55;55.27;101416.03;4981026;28;6856;-73
2023/01/27 13:09:37;;;;;;;;;;;;;;;9.54;54.80;101409.13;4974648;28;6942;-73
2023/01/27 13:12:28;;;;;;;;;;;;;;;9.51;55.50;101414.06;4966900;28;7327;-73
2023/01/27 13:15:14;;;;;;;;;;;;;;;9.50;55.24;101407.16;4965589;28;7258;-73
2023/01/27 13:17:47;;;;;;;;;;;;;;;9.51;55.58;101414.06;4943194;28;6883;-73
2023/01/27 13:20:41;;;;;;;;;;;;;;;9.49;55.26;101417.28;4968491;28;7436;-73
2023/01/27 13:23:27;;;;;;;;;;;;;;;9.49;54.93;101412.16;4972204;28;6978;-73
2023/01/27 13:26:17;;;;;;;;;;;;;;;9.46;55.03;101423.06;4970953;28;7039;-73
2023/01/27 13:28:59;;;;;;;;;;;;;;;9.45;55.16;101416.19;4964939;28;6868;-73
2023/01/27 13:31:58;;;;;;;;;;;;;;;9.44;54.79;101414.41;4972243;28;6796;-73
2023/01/27 13:34:53;;;;;;;;;;;;;;;9.43;54.57;101420.31;4998562;28;6973;-73
2023/01/27 13:37:47;;;;;;;;;;;;;;;9.40;55.78;101428.66;4983623;28;6823;-73
2023/01/27 13:40:39;;;;;;;;;;;;;;;9.41;56.01;101429.56;4981952;28;6892;-73
2023/01/27 13:43:33;;;;;;;;;;;;;;;9.40;55.64;101430.34;4976442;28;6880;-73
2023/01/27 13:46:22;;;;;;;;;;;;;;;9.41;55.46;101429.56;4978210;28;6820;-74
2023/01/27 13:48:54;;;;;;;;;;;;;;;9.43;55.13;101441.69;4985598;28;7547;-73
2023/01/27 13:51:27;;;;;;;;;;;;;;;9.44;55.13;101438.34;4977766;28;6980;-73
2023/01/27 13:54:00;;;;;;;;;;;;;;;9.43;54.80;101444.25;4966053;28;6963;-74
2023/01/27 13:57:23;;;;;;;;;;;;;;;9.40;55.54;101448.25;4979869;28;7046;-73